Terminal Aerodrome Forecast
Issued by NWS Sterling, VA

Home | Current Version | Previous Version | Text Only | Print | Product List | Glossary On
Versions: 1 2 3 4 5 6 7 8 9 10 11 12 13 14 15 16 17 18 19 20 21 22 23
000
FTUS41 KLWX 050541
TAFBWI
TAF
KBWI 050541Z 0506/0612 VRB04KT P6SM FEW100 WS020/22040KT
     FM050900 VRB04KT P6SM SCT100
     FM051500 26006KT P6SM BKN090
     FM052000 25005KT 6SM -SHRA BKN050
     FM060200 VRB03KT P6SM OVC090=

USA.gov is the U.S. government's official web portal to all federal, state and local government web resources and services.